createdAt,value
2019-05-29T00:00:36.222Z,0.00
2019-05-29T00:01:36.198Z,0.00
2019-05-29T00:02:36.211Z,0.00
2019-05-29T00:03:36.227Z,0.00
2019-05-29T00:04:36.237Z,0.00
2019-05-29T00:05:36.255Z,0.00
2019-05-29T00:06:36.261Z,0.00
2019-05-29T00:07:36.284Z,0.00
2019-05-29T00:08:36.290Z,0.00
2019-05-29T00:09:36.315Z,0.00
2019-05-29T00:10:36.309Z,0.00
2019-05-29T00:11:36.319Z,0.00
2019-05-29T00:12:36.353Z,0.00
2019-05-29T00:13:36.354Z,0.00
2019-05-29T00:14:36.911Z,0.00
2019-05-29T00:15:36.371Z,0.00
2019-05-29T00:16:36.383Z,0.00
2019-05-29T00:17:36.415Z,0.00
2019-05-29T00:18:36.888Z,0.00
2019-05-29T00:19:36.430Z,0.00
2019-05-29T00:20:36.434Z,4.00
2019-05-29T00:21:36.444Z,0.00
2019-05-29T00:22:36.454Z,0.00
2019-05-29T00:23:36.473Z,0.00
2019-05-29T00:24:36.794Z,0.00
2019-05-29T00:25:36.501Z,0.00
2019-05-29T00:26:36.502Z,0.00
2019-05-29T00:27:36.515Z,0.00
2019-05-29T00:28:36.535Z,0.00
2019-05-29T00:29:36.554Z,0.00
2019-05-29T00:30:36.554Z,0.00
2019-05-29T00:32:37.002Z,0.00
2019-05-29T00:33:36.592Z,4.00
2019-05-29T00:34:36.610Z,0.00
2019-05-29T00:35:36.621Z,0.00
2019-05-29T00:36:36.626Z,0.00
2019-05-29T00:37:36.639Z,0.00
2019-05-29T00:38:36.650Z,0.00
2019-05-29T00:39:36.660Z,0.00
2019-05-29T00:40:36.676Z,0.00
2019-05-29T00:41:36.865Z,0.00
2019-05-29T00:42:36.802Z,0.00
2019-05-29T00:43:37.206Z,0.00
2019-05-29T00:44:36.733Z,0.00
2019-05-29T00:45:36.790Z,0.00
2019-05-29T00:46:36.893Z,0.00
2019-05-29T00:47:36.796Z,4.00
2019-05-29T00:48:36.772Z,0.00
2019-05-29T00:49:36.785Z,0.00
2019-05-29T00:50:36.801Z,0.00
2019-05-29T00:51:36.833Z,0.00
2019-05-29T00:52:36.839Z,0.00
2019-05-29T00:53:36.922Z,0.00
2019-05-29T00:54:36.851Z,0.00
2019-05-29T00:55:36.856Z,0.00
2019-05-29T00:56:36.864Z,0.00
2019-05-29T00:57:36.878Z,0.00
2019-05-29T00:58:36.892Z,0.00
2019-05-29T00:59:36.906Z,0.00
2019-05-29T01:00:36.920Z,0.00
2019-05-29T01:01:36.930Z,0.00
2019-05-29T01:02:36.945Z,0.00
2019-05-29T01:03:36.950Z,0.00
2019-05-29T01:04:36.969Z,0.00
2019-05-29T01:05:36.975Z,0.00
2019-05-29T01:06:36.989Z,0.00
2019-05-29T01:07:37.001Z,0.00
2019-05-29T01:09:37.020Z,0.00
2019-05-29T01:10:37.082Z,0.00
2019-05-29T01:11:37.147Z,0.00
2019-05-29T01:12:37.241Z,0.00
2019-05-29T01:13:37.287Z,0.00
2019-05-29T01:14:49.175Z,0.00
2019-05-29T01:15:37.500Z,0.00
2019-05-29T01:16:37.144Z,0.00
2019-05-29T01:17:37.190Z,0.00
2019-05-29T01:18:37.465Z,0.00
2019-05-29T01:19:37.185Z,0.00
2019-05-29T01:20:37.268Z,0.00
2019-05-29T01:21:37.170Z,0.00
2019-05-29T01:22:37.186Z,0.00
2019-05-29T01:23:37.193Z,0.00
2019-05-29T01:24:37.276Z,0.00
2019-05-29T01:25:37.219Z,0.00
2019-05-29T01:26:37.224Z,0.00
2019-05-29T01:27:37.236Z,0.00
2019-05-29T01:28:37.263Z,0.00
2019-05-29T01:29:37.258Z,0.00
2019-05-29T01:30:37.338Z,0.00
2019-05-29T01:31:37.291Z,0.00
2019-05-29T01:32:37.311Z,0.00
2019-05-29T01:33:37.309Z,0.00
2019-05-29T01:34:37.326Z,0.00
2019-05-29T01:35:37.346Z,0.00
2019-05-29T01:36:37.368Z,0.00
2019-05-29T01:37:37.367Z,0.00
2019-05-29T01:38:37.369Z,0.00
2019-05-29T01:39:37.388Z,0.00
2019-05-29T01:40:37.400Z,0.00
2019-05-29T01:41:37.405Z,0.00
2019-05-29T01:42:37.416Z,0.00
2019-05-29T01:43:37.426Z,0.00
2019-05-29T01:44:37.442Z,0.00
2019-05-29T01:45:37.454Z,0.00
2019-05-29T01:46:37.653Z,0.00
2019-05-29T01:48:37.487Z,0.00
2019-05-29T01:49:38.160Z,0.00
2019-05-29T01:50:37.508Z,0.00
2019-05-29T01:51:37.528Z,0.00
2019-05-29T01:52:37.535Z,0.00
2019-05-29T01:53:37.544Z,0.00
2019-05-29T01:54:37.561Z,0.00
2019-05-29T01:55:37.573Z,0.00
2019-05-29T01:56:37.580Z,0.00
2019-05-29T01:58:37.606Z,0.00
2019-05-29T01:59:37.616Z,0.00
2019-05-29T02:00:37.627Z,0.00
2019-05-29T02:01:37.639Z,0.00
2019-05-29T02:02:37.649Z,0.00
2019-05-29T02:03:37.674Z,0.00
2019-05-29T02:04:37.674Z,0.00
2019-05-29T02:05:37.732Z,0.00
2019-05-29T02:06:37.705Z,0.00
2019-05-29T02:07:37.709Z,0.00
2019-05-29T02:08:37.794Z,0.00
2019-05-29T02:09:37.737Z,0.00
2019-05-29T02:10:37.746Z,0.00
2019-05-29T02:11:37.765Z,0.00
2019-05-29T02:12:37.768Z,0.00
2019-05-29T02:13:37.782Z,0.00
2019-05-29T02:14:37.799Z,4.00
2019-05-29T02:15:37.808Z,4.00
2019-05-29T02:16:37.819Z,4.00
2019-05-29T02:17:37.826Z,4.00
2019-05-29T02:19:38.053Z,4.00
2019-05-29T02:20:37.866Z,4.00
2019-05-29T02:21:38.481Z,4.00
2019-05-29T02:22:37.894Z,4.00
2019-05-29T02:23:37.940Z,4.00
2019-05-29T02:24:37.913Z,4.00
2019-05-29T02:25:37.917Z,4.00
2019-05-29T02:26:37.934Z,4.00
2019-05-29T02:27:37.943Z,4.00
2019-05-29T02:28:37.978Z,4.00
2019-05-29T02:29:38.375Z,4.00
2019-05-29T02:30:37.977Z,4.00
2019-05-29T02:31:37.988Z,4.00
2019-05-29T02:32:38.013Z,4.00
2019-05-29T02:33:38.017Z,4.00
2019-05-29T02:34:38.025Z,4.00
2019-05-29T02:35:38.035Z,4.00
2019-05-29T02:36:38.052Z,4.00
2019-05-29T02:37:38.059Z,4.00
2019-05-29T02:38:38.069Z,4.00
2019-05-29T02:39:38.086Z,4.00
2019-05-29T02:40:38.107Z,4.00
2019-05-29T02:41:38.138Z,4.00
2019-05-29T02:42:38.130Z,4.00
2019-05-29T02:43:38.130Z,4.00
2019-05-29T02:44:38.146Z,0.00
2019-05-29T02:45:53.432Z,4.00
2019-05-29T02:46:38.162Z,4.00
2019-05-29T02:47:38.181Z,4.00
2019-05-29T02:48:38.191Z,4.00
2019-05-29T02:49:38.207Z,4.00
2019-05-29T02:52:38.467Z,4.00
2019-05-29T02:53:38.550Z,8.00
2019-05-29T02:54:38.865Z,4.00
2019-05-29T02:55:38.278Z,8.00
2019-05-29T02:56:42.294Z,8.00
2019-05-29T02:57:38.844Z,4.00
2019-05-29T02:58:39.826Z,8.00
2019-05-29T02:59:38.317Z,8.00
2019-05-29T03:00:38.329Z,8.00
2019-05-29T03:01:38.338Z,8.00
2019-05-29T03:02:38.359Z,12.00
2019-05-29T03:03:40.099Z,12.00
2019-05-29T03:04:38.378Z,16.00
2019-05-29T03:05:38.386Z,20.00
2019-05-29T03:06:38.419Z,20.00
2019-05-29T03:07:38.406Z,24.00
2019-05-29T03:08:38.418Z,24.00
2019-05-29T03:09:38.428Z,28.00
2019-05-29T03:10:38.445Z,32.00
2019-05-29T03:11:38.459Z,32.00
2019-05-29T03:12:38.464Z,36.00
2019-05-29T03:13:38.479Z,40.00
2019-05-29T03:14:38.491Z,44.00
2019-05-29T03:15:38.501Z,48.00
2019-05-29T03:16:38.511Z,48.00
2019-05-29T03:17:38.583Z,56.00
2019-05-29T03:18:38.534Z,60.00
2019-05-29T03:19:38.564Z,64.00
2019-05-29T03:20:38.577Z,72.00
2019-05-29T03:21:38.566Z,76.00
2019-05-29T03:22:38.614Z,84.00
2019-05-29T03:23:38.766Z,88.00
2019-05-29T03:26:39.378Z,108.00
2019-05-29T03:29:39.178Z,128.00
2019-05-29T03:30:45.353Z,136.00
2019-05-29T03:31:46.603Z,148.00
2019-05-29T03:32:46.127Z,152.00
2019-05-29T03:33:47.761Z,160.00
2019-05-29T03:34:45.748Z,172.00
2019-05-29T03:35:46.780Z,176.00
2019-05-29T03:36:46.342Z,188.00
2019-05-29T03:37:38.982Z,196.00
2019-05-29T03:38:38.762Z,200.00
2019-05-29T03:39:38.772Z,212.00
2019-05-29T03:40:38.858Z,220.00
2019-05-29T03:41:39.210Z,228.00
2019-05-29T03:42:39.275Z,236.00
2019-05-29T03:43:38.938Z,248.00
2019-05-29T03:44:38.861Z,256.00
2019-05-29T03:45:38.844Z,264.00
2019-05-29T03:46:45.225Z,276.00
2019-05-29T03:47:38.958Z,284.00
2019-05-29T03:48:38.926Z,292.00
2019-05-29T03:49:38.907Z,304.00
2019-05-29T03:50:38.909Z,312.00
2019-05-29T03:51:39.102Z,324.00
2019-05-29T03:52:39.228Z,332.00
2019-05-29T03:53:38.944Z,344.00
2019-05-29T03:55:38.983Z,368.00
2019-05-29T03:56:39.098Z,376.00
2019-05-29T03:57:38.981Z,388.00
2019-05-29T03:58:38.994Z,400.00
2019-05-29T03:59:39.285Z,408.00
2019-05-29T04:00:46.165Z,420.00
2019-05-29T04:01:40.389Z,432.00
2019-05-29T04:02:40.057Z,444.00
2019-05-29T04:03:39.338Z,456.00
2019-05-29T04:04:39.058Z,468.00
2019-05-29T04:05:39.070Z,480.00
2019-05-29T04:06:39.110Z,496.00
2019-05-29T04:07:39.144Z,508.00
2019-05-29T04:08:39.101Z,520.00
2019-05-29T04:09:39.124Z,536.00
2019-05-29T04:10:39.725Z,552.00
2019-05-29T04:11:39.143Z,564.00
2019-05-29T04:12:39.152Z,576.00
2019-05-29T04:13:39.369Z,588.00
2019-05-29T04:14:39.181Z,600.00
2019-05-29T04:15:39.189Z,612.00
2019-05-29T04:16:58.468Z,624.00
2019-05-29T04:17:39.209Z,636.00
2019-05-29T04:18:39.220Z,652.00
2019-05-29T04:19:39.243Z,660.00
2019-05-29T04:20:39.253Z,676.00
2019-05-29T04:21:39.268Z,688.00
2019-05-29T04:22:39.262Z,704.00
2019-05-29T04:23:39.288Z,720.00
2019-05-29T04:24:39.310Z,732.00
2019-05-29T04:25:42.635Z,752.00
2019-05-29T04:26:39.427Z,776.00
2019-05-29T04:27:39.388Z,796.00
2019-05-29T04:28:39.359Z,820.00
2019-05-29T04:30:39.616Z,1256.00
2019-05-29T04:31:39.464Z,1608.00
2019-05-29T04:32:39.529Z,1336.00
2019-05-29T04:33:39.513Z,1440.00
2019-05-29T04:34:39.976Z,1328.00
2019-05-29T04:35:39.949Z,1132.00
2019-05-29T04:36:39.663Z,1192.00
2019-05-29T04:37:40.155Z,1328.00
2019-05-29T04:38:40.445Z,1236.00
2019-05-29T04:39:39.490Z,1072.00
2019-05-29T04:40:39.806Z,1040.00
2019-05-29T04:41:39.524Z,1160.00
2019-05-29T04:42:40.216Z,1096.00
2019-05-29T04:43:39.983Z,1056.00
2019-05-29T04:44:41.182Z,1052.00
2019-05-29T04:45:40.225Z,1080.00
2019-05-29T04:46:40.743Z,1064.00
2019-05-29T04:47:39.877Z,1072.00
2019-05-29T04:48:40.456Z,1084.00
2019-05-29T04:49:39.933Z,1096.00
2019-05-29T04:50:40.723Z,1228.00
2019-05-29T04:52:40.188Z,1188.00
2019-05-29T04:53:40.002Z,1152.00
2019-05-29T04:54:40.221Z,1160.00
2019-05-29T04:55:39.645Z,1208.00
2019-05-29T04:57:39.786Z,1596.00
2019-05-29T04:58:40.336Z,1420.00
2019-05-29T04:59:39.720Z,1320.00
2019-05-29T05:00:56.055Z,1492.00
2019-05-29T05:01:39.744Z,1900.00
2019-05-29T05:02:39.726Z,1932.00
2019-05-29T05:03:40.927Z,1484.00
2019-05-29T05:04:39.757Z,1272.00
2019-05-29T05:05:39.790Z,1284.00
2019-05-29T05:06:39.786Z,1296.00
2019-05-29T05:07:39.839Z,1308.00
2019-05-29T05:08:40.219Z,1316.00
2019-05-29T05:09:39.830Z,1336.00
2019-05-29T05:10:41.009Z,1348.00
2019-05-29T05:11:39.942Z,1360.00
2019-05-29T05:12:40.165Z,1372.00
2019-05-29T05:13:39.860Z,1376.00
2019-05-29T05:14:40.121Z,1384.00
2019-05-29T05:15:40.225Z,1396.00
2019-05-29T05:16:40.055Z,1404.00
2019-05-29T05:17:40.218Z,1432.00
2019-05-29T05:18:40.319Z,1440.00
2019-05-29T05:19:40.187Z,1452.00
2019-05-29T05:20:40.403Z,1468.00
2019-05-29T05:21:40.306Z,1476.00
2019-05-29T05:22:40.949Z,1484.00
2019-05-29T05:23:40.589Z,1496.00
2019-05-29T05:25:41.029Z,1520.00
2019-05-29T05:26:40.483Z,1532.00
2019-05-29T05:27:40.620Z,1540.00
2019-05-29T05:28:43.449Z,1552.00
2019-05-29T05:29:40.500Z,1560.00
2019-05-29T05:30:40.815Z,1572.00
2019-05-29T05:31:40.847Z,1580.00
2019-05-29T05:32:41.163Z,1592.00
2019-05-29T05:33:41.087Z,1600.00
2019-05-29T05:34:41.023Z,1616.00
2019-05-29T05:35:41.018Z,1632.00
2019-05-29T05:36:41.043Z,1636.00
2019-05-29T05:37:41.060Z,1644.00
2019-05-29T05:38:41.134Z,1656.00
2019-05-29T05:39:41.184Z,1664.00
2019-05-29T05:40:42.731Z,1676.00
2019-05-29T05:41:41.042Z,1684.00
2019-05-29T05:42:41.261Z,1696.00
2019-05-29T05:43:41.435Z,1708.00
2019-05-29T05:44:41.146Z,1716.00
2019-05-29T05:45:41.230Z,1732.00
2019-05-29T05:46:41.316Z,1740.00
2019-05-29T05:47:54.681Z,1748.00
2019-05-29T05:48:41.313Z,1752.00
2019-05-29T05:49:41.688Z,1764.00
2019-05-29T05:50:41.502Z,1772.00
2019-05-29T05:51:44.166Z,1776.00
2019-05-29T05:52:41.676Z,1788.00
2019-05-29T05:54:41.641Z,1804.00
2019-05-29T05:55:41.723Z,1812.00
2019-05-29T05:57:41.746Z,1828.00
2019-05-29T05:58:41.971Z,1836.00
2019-05-29T05:59:41.942Z,1848.00
2019-05-29T06:01:42.083Z,1864.00
2019-05-29T06:02:42.012Z,1868.00
2019-05-29T06:03:42.423Z,1880.00
2019-05-29T06:04:42.071Z,1892.00
2019-05-29T06:06:40.711Z,1908.00
2019-05-29T06:07:40.544Z,1912.00
2019-05-29T06:08:40.529Z,1924.00
2019-05-29T06:09:40.611Z,1932.00
2019-05-29T06:10:40.558Z,1940.00
2019-05-29T06:11:40.607Z,1948.00
2019-05-29T06:12:40.660Z,1956.00
2019-05-29T06:13:40.783Z,1964.00
2019-05-29T06:14:40.957Z,1972.00
2019-05-29T06:16:42.770Z,1980.00
2019-05-29T06:17:40.798Z,1988.00
2019-05-29T06:18:40.704Z,1992.00
2019-05-29T06:19:41.143Z,2000.00
2019-05-29T06:20:41.074Z,2008.00
2019-05-29T06:21:40.940Z,2008.00
2019-05-29T06:22:41.170Z,2016.00
2019-05-29T06:23:41.117Z,2024.00
2019-05-29T06:24:41.026Z,2032.00
2019-05-29T06:25:42.424Z,2036.00
2019-05-29T06:26:41.073Z,2044.00
2019-05-29T06:27:41.389Z,2048.00
2019-05-29T06:28:41.278Z,2056.00
2019-05-29T06:29:41.280Z,2072.00
2019-05-29T06:30:42.587Z,2072.00
2019-05-29T06:31:41.438Z,2044.00
2019-05-29T06:32:41.541Z,2044.00
2019-05-29T06:33:41.538Z,2056.00
2019-05-29T06:34:41.614Z,2068.00
2019-05-29T06:35:41.684Z,2076.00
2019-05-29T06:36:41.630Z,2080.00
2019-05-29T06:37:41.761Z,2092.00
2019-05-29T06:38:42.199Z,2104.00
2019-05-29T06:39:41.791Z,2108.00
2019-05-29T06:40:42.129Z,2120.00
2019-05-29T06:41:42.045Z,2120.00
2019-05-29T06:42:41.937Z,2136.00
2019-05-29T06:43:41.948Z,2148.00
2019-05-29T06:44:41.972Z,2164.00
2019-05-29T06:45:42.040Z,2172.00
2019-05-29T06:46:42.468Z,2188.00
2019-05-29T06:47:42.633Z,2196.00
2019-05-29T06:48:53.602Z,2212.00
2019-05-29T06:49:42.102Z,2224.00
2019-05-29T06:50:41.474Z,2232.00
2019-05-29T06:51:41.384Z,2244.00
2019-05-29T06:52:43.514Z,2248.00
2019-05-29T06:53:41.771Z,2268.00
2019-05-29T06:54:42.005Z,2288.00
2019-05-29T06:55:42.145Z,2292.00
2019-05-29T06:56:41.766Z,2308.00
2019-05-29T06:57:42.688Z,2320.00
2019-05-29T06:58:42.232Z,2332.00
2019-05-29T06:59:42.397Z,2352.00
2019-05-29T07:00:42.789Z,2360.00
2019-05-29T07:01:41.770Z,2376.00
2019-05-29T07:02:42.553Z,2380.00
2019-05-29T07:03:41.789Z,2396.00
2019-05-29T07:04:42.488Z,2408.00
2019-05-29T07:05:49.622Z,2424.00
2019-05-29T07:07:42.472Z,2452.00
2019-05-29T07:08:45.030Z,2464.00
2019-05-29T07:09:41.457Z,2472.00
2019-05-29T07:10:42.598Z,2480.00
2019-05-29T07:11:41.406Z,2484.00
2019-05-29T07:12:42.408Z,2468.00
2019-05-29T07:13:43.932Z,2516.00
2019-05-29T07:14:42.402Z,2536.00
2019-05-29T07:15:42.816Z,2544.00
2019-05-29T07:16:49.578Z,2564.00
2019-05-29T07:17:42.457Z,2568.00
2019-05-29T07:19:20.645Z,2568.00
2019-05-29T07:19:56.659Z,2580.00
2019-05-29T07:20:42.657Z,2596.00
2019-05-29T07:21:42.745Z,2600.00
2019-05-29T07:22:42.735Z,2616.00
2019-05-29T07:23:44.639Z,2692.00
2019-05-29T07:24:43.350Z,2712.00
2019-05-29T07:25:42.879Z,2724.00
2019-05-29T07:26:43.043Z,2724.00
2019-05-29T07:27:42.796Z,2736.00
2019-05-29T07:28:58.923Z,2748.00
2019-05-29T07:29:41.569Z,2768.00
2019-05-29T07:30:46.874Z,2760.00
2019-05-29T07:31:41.586Z,2764.00
2019-05-29T07:32:43.205Z,2776.00
2019-05-29T07:33:43.181Z,2784.00
2019-05-29T07:34:56.741Z,2792.00
2019-05-29T07:35:41.627Z,2796.00
2019-05-29T07:36:41.992Z,2800.00
2019-05-29T07:37:41.754Z,2796.00
2019-05-29T07:38:49.333Z,2812.00
2019-05-29T07:39:41.685Z,2820.00
2019-05-29T07:40:42.696Z,2828.00
2019-05-29T07:41:41.748Z,2832.00
2019-05-29T07:42:47.270Z,2836.00
2019-05-29T07:43:41.880Z,2840.00
2019-05-29T07:44:42.147Z,2844.00
2019-05-29T07:45:42.212Z,2872.00
2019-05-29T07:46:42.467Z,2840.00
2019-05-29T07:47:42.693Z,2848.00
2019-05-29T07:48:42.606Z,2852.00
2019-05-29T07:50:42.575Z,2852.00
2019-05-29T07:51:43.380Z,2860.00
2019-05-29T07:52:43.198Z,2868.00
2019-05-29T07:53:42.259Z,2860.00
2019-05-29T07:54:41.937Z,2884.00
2019-05-29T07:55:42.581Z,2888.00
2019-05-29T07:56:42.443Z,2884.00
2019-05-29T07:57:42.793Z,2896.00
2019-05-29T07:58:49.023Z,2900.00
2019-05-29T07:59:42.665Z,2912.00
2019-05-29T08:01:06.741Z,2964.00
2019-05-29T08:01:42.778Z,1524.00
2019-05-29T08:02:43.202Z,1108.00
2019-05-29T08:03:43.489Z,1980.00
2019-05-29T08:04:43.044Z,3072.00
2019-05-29T08:05:46.011Z,3676.00
2019-05-29T08:06:48.286Z,3004.00
2019-05-29T08:07:43.409Z,2928.00
2019-05-29T08:08:43.217Z,2928.00
2019-05-29T08:09:42.091Z,2932.00
2019-05-29T08:10:43.365Z,2944.00
2019-05-29T08:11:43.454Z,2956.00
2019-05-29T08:12:50.241Z,2968.00
2019-05-29T08:13:43.874Z,2976.00
2019-05-29T08:14:42.158Z,2976.00
2019-05-29T08:15:56.417Z,2972.00
2019-05-29T08:16:42.180Z,2996.00
2019-05-29T08:17:42.209Z,3000.00
2019-05-29T08:18:47.272Z,3008.00
2019-05-29T08:19:59.320Z,3032.00
2019-05-29T08:20:42.327Z,3060.00
2019-05-29T08:21:42.712Z,3092.00
2019-05-29T08:22:42.414Z,3116.00
2019-05-29T08:23:42.440Z,3144.00
2019-05-29T08:24:42.688Z,3188.00
2019-05-29T08:25:43.447Z,3224.00
2019-05-29T08:26:43.025Z,3268.00
2019-05-29T08:27:42.655Z,3288.00
2019-05-29T08:28:42.825Z,3308.00
2019-05-29T08:29:42.668Z,3336.00
2019-05-29T08:30:47.363Z,3340.00
2019-05-29T08:31:42.739Z,3360.00
2019-05-29T08:32:43.590Z,3412.00
2019-05-29T08:33:42.844Z,3448.00
2019-05-29T08:34:43.067Z,3492.00
2019-05-29T08:35:43.086Z,3564.00
2019-05-29T08:37:01.771Z,3632.00
2019-05-29T08:37:43.172Z,3680.00
2019-05-29T08:38:44.137Z,3712.00
2019-05-29T08:39:43.420Z,3724.00
2019-05-29T08:40:42.998Z,3708.00
2019-05-29T08:41:47.995Z,3644.00
2019-05-29T08:42:43.175Z,3580.00
2019-05-29T08:43:44.779Z,3564.00
2019-05-29T08:44:43.701Z,3592.00
2019-05-29T08:45:43.487Z,3608.00
2019-05-29T08:46:57.661Z,3616.00
2019-05-29T08:47:43.509Z,3580.00
2019-05-29T08:48:43.692Z,3512.00
2019-05-29T08:49:43.700Z,3420.00
2019-05-29T08:50:43.691Z,3324.00
2019-05-29T08:51:43.822Z,3236.00
2019-05-29T08:52:43.838Z,3232.00
2019-05-29T08:53:44.036Z,3252.00
2019-05-29T08:54:43.880Z,3268.00
2019-05-29T08:55:44.116Z,3244.00
2019-05-29T08:56:42.720Z,3204.00
2019-05-29T08:57:44.100Z,3188.00
2019-05-29T08:58:42.951Z,3168.00
2019-05-29T09:00:48.180Z,3208.00
2019-05-29T09:01:43.266Z,3240.00
2019-05-29T09:02:42.836Z,3280.00
2019-05-29T09:03:44.725Z,3288.00
2019-05-29T09:04:43.093Z,3292.00
2019-05-29T09:05:42.858Z,3300.00
2019-05-29T09:06:43.055Z,3280.00
2019-05-29T09:07:43.525Z,3264.00
2019-05-29T09:08:43.961Z,3280.00
2019-05-29T09:09:44.849Z,3300.00
2019-05-29T09:10:43.296Z,3296.00
2019-05-29T09:11:43.061Z,3276.00
2019-05-29T09:12:46.930Z,3280.00
2019-05-29T09:13:43.616Z,3312.00
2019-05-29T09:14:42.973Z,3308.00
2019-05-29T09:15:43.305Z,3304.00
2019-05-29T09:16:43.030Z,3324.00
2019-05-29T09:17:43.661Z,3328.00
2019-05-29T09:18:43.653Z,3324.00
2019-05-29T09:19:43.132Z,3324.00
2019-05-29T09:21:01.924Z,3336.00
2019-05-29T09:21:43.065Z,3320.00
2019-05-29T09:22:43.137Z,3308.00
2019-05-29T09:23:43.101Z,3272.00
2019-05-29T09:24:43.156Z,3320.00
2019-05-29T09:25:43.120Z,3320.00
2019-05-29T09:26:46.341Z,3320.00
2019-05-29T09:27:43.145Z,2844.00
2019-05-29T09:28:43.178Z,3384.00
2019-05-29T09:29:43.303Z,3336.00
2019-05-29T09:30:43.199Z,3376.00
2019-05-29T09:31:43.208Z,3388.00
2019-05-29T09:32:50.479Z,3392.00
2019-05-29T09:33:43.237Z,3400.00
2019-05-29T09:34:46.915Z,3436.00
2019-05-29T09:35:43.303Z,3452.00
2019-05-29T09:36:43.562Z,3432.00
2019-05-29T09:37:43.310Z,3440.00
2019-05-29T09:38:43.310Z,3452.00
2019-05-29T09:39:44.361Z,3480.00
2019-05-29T09:40:43.325Z,3504.00
2019-05-29T09:41:43.356Z,3500.00
2019-05-29T09:42:43.369Z,3480.00
2019-05-29T09:43:57.622Z,3452.00
2019-05-29T09:44:46.420Z,3448.00
2019-05-29T09:45:43.554Z,3444.00
2019-05-29T09:46:43.419Z,3480.00
2019-05-29T09:47:43.955Z,3496.00
2019-05-29T09:48:49.710Z,3476.00
2019-05-29T09:49:43.456Z,3472.00
2019-05-29T09:50:50.031Z,3496.00
2019-05-29T09:51:43.531Z,3496.00
2019-05-29T09:52:43.552Z,3500.00
2019-05-29T09:53:43.515Z,3500.00
2019-05-29T09:54:43.522Z,3504.00
2019-05-29T09:55:43.538Z,3508.00
2019-05-29T09:56:43.554Z,3508.00
2019-05-29T09:57:43.574Z,3512.00
2019-05-29T09:58:43.584Z,3524.00
2019-05-29T09:59:43.648Z,3520.00
2019-05-29T10:00:43.801Z,3544.00
2019-05-29T10:01:43.626Z,3556.00
2019-05-29T10:02:43.683Z,3576.00
2019-05-29T10:03:43.672Z,3572.00
2019-05-29T10:04:43.663Z,3580.00
2019-05-29T10:05:44.095Z,3620.00
2019-05-29T10:06:43.707Z,3624.00
2019-05-29T10:07:43.716Z,3632.00
2019-05-29T10:08:43.892Z,3716.00
2019-05-29T10:09:43.741Z,3516.00
2019-05-29T10:10:44.015Z,3568.00
2019-05-29T10:11:44.048Z,3548.00
2019-05-29T10:12:43.784Z,3564.00
2019-05-29T10:13:43.975Z,3584.00
2019-05-29T10:14:43.845Z,3512.00
2019-05-29T10:15:43.852Z,3592.00
2019-05-29T10:16:43.887Z,3592.00
2019-05-29T10:17:43.863Z,3592.00
2019-05-29T10:18:43.863Z,3628.00
2019-05-29T10:20:44.195Z,3648.00
2019-05-29T10:21:43.946Z,3660.00
2019-05-29T10:22:43.923Z,3708.00
2019-05-29T10:23:44.049Z,3728.00
2019-05-29T10:24:43.974Z,3740.00
2019-05-29T10:25:43.966Z,3736.00
2019-05-29T10:26:43.977Z,3732.00
2019-05-29T10:27:43.997Z,3756.00
2019-05-29T10:29:44.588Z,3792.00
2019-05-29T10:30:44.438Z,3816.00
2019-05-29T10:31:46.775Z,3808.00
2019-05-29T10:32:44.527Z,3816.00
2019-05-29T10:32:52.846Z,3772.00
2019-05-29T10:33:44.179Z,3820.00
2019-05-29T10:34:44.383Z,3804.00
2019-05-29T10:35:44.677Z,3848.00
2019-05-29T10:36:46.980Z,3848.00
2019-05-29T10:37:44.555Z,3848.00
2019-05-29T10:38:44.391Z,3808.00
2019-05-29T10:39:44.684Z,3784.00
2019-05-29T10:40:47.356Z,3796.00
2019-05-29T10:41:44.687Z,3784.00
2019-05-29T10:42:45.084Z,3780.00
2019-05-29T10:43:45.025Z,3768.00
2019-05-29T10:44:44.860Z,3736.00
2019-05-29T10:45:45.667Z,3708.00
2019-05-29T10:46:46.089Z,3692.00
2019-05-29T10:47:45.493Z,3668.00
2019-05-29T10:48:47.704Z,3676.00
2019-05-29T10:49:45.471Z,3696.00
2019-05-29T10:50:47.775Z,3736.00
2019-05-29T10:52:00.352Z,3788.00
2019-05-29T10:52:44.366Z,3840.00
2019-05-29T10:53:44.491Z,3876.00
2019-05-29T10:54:46.089Z,3912.00
2019-05-29T10:55:44.499Z,3892.00
2019-05-29T10:56:44.780Z,3820.00
2019-05-29T10:57:44.793Z,3796.00
2019-05-29T10:58:49.595Z,3736.00
2019-05-29T10:59:44.616Z,3700.00
2019-05-29T11:00:45.401Z,3728.00
2019-05-29T11:01:45.125Z,3692.00
2019-05-29T11:02:45.889Z,3664.00
2019-05-29T11:03:45.541Z,3652.00
2019-05-29T11:04:48.627Z,3664.00
2019-05-29T11:05:45.637Z,3692.00
2019-05-29T11:06:46.048Z,3724.00
2019-05-29T11:07:45.700Z,3772.00
2019-05-29T11:08:45.811Z,3788.00
2019-05-29T11:09:45.604Z,3808.00
2019-05-29T11:10:45.906Z,3812.00
2019-05-29T11:11:46.150Z,3832.00
2019-05-29T11:12:44.634Z,3864.00
2019-05-29T11:13:44.665Z,3856.00
2019-05-29T11:14:44.712Z,3884.00
2019-05-29T11:15:44.687Z,3896.00
2019-05-29T11:16:44.694Z,3848.00
2019-05-29T11:17:44.712Z,3800.00
2019-05-29T11:20:44.853Z,3828.00
2019-05-29T11:21:45.287Z,3868.00
2019-05-29T11:22:44.778Z,3888.00
2019-05-29T11:23:44.805Z,3872.00
2019-05-29T11:24:44.861Z,3900.00
2019-05-29T11:25:44.828Z,3924.00
2019-05-29T11:27:45.349Z,3824.00
2019-05-29T11:28:45.721Z,3816.00
2019-05-29T11:29:45.192Z,3804.00
2019-05-29T11:30:44.970Z,3788.00
2019-05-29T11:31:44.960Z,3844.00
2019-05-29T11:32:47.501Z,3888.00
2019-05-29T11:33:44.952Z,3848.00
2019-05-29T11:34:45.039Z,3888.00
2019-05-29T11:35:58.098Z,3896.00
2019-05-29T11:36:44.988Z,3944.00
2019-05-29T11:37:45.130Z,3960.00
2019-05-29T11:38:45.116Z,3956.00
2019-05-29T11:39:45.027Z,3964.00
2019-05-29T11:41:45.208Z,3992.00
2019-05-29T11:42:45.135Z,3960.00
2019-05-29T11:43:46.059Z,3976.00
2019-05-29T11:44:45.109Z,3996.00
2019-05-29T11:45:45.272Z,3968.00
2019-05-29T11:47:46.815Z,4044.00
2019-05-29T11:48:45.157Z,4120.00
2019-05-29T11:49:45.177Z,4232.00
2019-05-29T11:50:45.471Z,4332.00
2019-05-29T11:51:45.222Z,4344.00
2019-05-29T11:53:45.238Z,4432.00
2019-05-29T11:54:45.751Z,4416.00
2019-05-29T11:56:45.434Z,4504.00
2019-05-29T11:57:45.312Z,4452.00
2019-05-29T11:58:45.355Z,4460.00
2019-05-29T11:59:45.337Z,4524.00
2019-05-29T12:00:45.343Z,4568.00
2019-05-29T12:01:50.240Z,4568.00
2019-05-29T12:02:45.371Z,4588.00
2019-05-29T12:04:08.182Z,4584.00
2019-05-29T12:04:45.402Z,4660.00
2019-05-29T12:05:45.406Z,4820.00
2019-05-29T12:06:45.470Z,5024.00
2019-05-29T12:07:45.642Z,5028.00
2019-05-29T12:08:45.451Z,5160.00
2019-05-29T12:09:45.477Z,5204.00
2019-05-29T12:10:45.505Z,5212.00
2019-05-29T12:11:45.500Z,5348.00
2019-05-29T12:12:45.514Z,5280.00
2019-05-29T12:13:45.548Z,5280.00
2019-05-29T12:14:58.811Z,5376.00
2019-05-29T12:15:45.557Z,5336.00
2019-05-29T12:16:45.811Z,5376.00
2019-05-29T12:17:45.695Z,5312.00
2019-05-29T12:18:45.600Z,5208.00
2019-05-29T12:19:45.638Z,5192.00
2019-05-29T12:20:45.629Z,5168.00
2019-05-29T12:21:45.669Z,5296.00
2019-05-29T12:23:11.137Z,5400.00
2019-05-29T12:23:45.692Z,5456.00
2019-05-29T12:24:46.199Z,5420.00
2019-05-29T12:25:45.702Z,5420.00
2019-05-29T12:26:45.721Z,5384.00
2019-05-29T12:27:45.739Z,5348.00
2019-05-29T12:29:45.956Z,5356.00
2019-05-29T12:30:46.184Z,5304.00
2019-05-29T12:31:45.807Z,5276.00
2019-05-29T12:32:45.817Z,5420.00
2019-05-29T12:34:53.483Z,4608.00
2019-05-29T12:35:45.859Z,7144.00
2019-05-29T12:36:45.869Z,8540.00
2019-05-29T12:37:45.923Z,9140.00
2019-05-29T12:38:45.915Z,9352.00
2019-05-29T12:39:45.916Z,7540.00
2019-05-29T12:40:45.930Z,3240.00
2019-05-29T12:41:45.952Z,5948.00
2019-05-29T12:42:45.965Z,7172.00
2019-05-29T12:43:46.024Z,9368.00
2019-05-29T12:44:46.013Z,10288.00
2019-05-29T12:45:46.019Z,10192.00
2019-05-29T12:46:46.064Z,10360.00
2019-05-29T12:47:46.056Z,10412.00
2019-05-29T12:48:46.090Z,10680.00
2019-05-29T12:49:46.093Z,10916.00
2019-05-29T12:50:46.096Z,11016.00
2019-05-29T12:51:48.399Z,11172.00
2019-05-29T12:52:46.145Z,11380.00
2019-05-29T12:53:46.149Z,11732.00
2019-05-29T12:54:46.199Z,11808.00
2019-05-29T12:55:46.313Z,12040.00
2019-05-29T12:56:46.217Z,12228.00
2019-05-29T12:57:46.230Z,12412.00
2019-05-29T12:58:46.274Z,12228.00